HESH/SSH METAR and TAF weather

Enter ICAO airport designator
Station Type Date Time Source
HESH METAR 2021/03/05 19:00 UTC NOAA

HESH 051900Z VRB02KT CAVOK 19/09 Q1021 NOSIG


Station Type Date Time Source
HESH Decoded METAR 2021/03/05 19:00 UTC NOAA

Sharm El Sheikhintl, Egypt (HESH) 27-58N 034-23E
Mar 05, 2021 - 02:00 PM EST / 2021.03.05 1900 UTC
Wind: Variable at 2 MPH (2 KT):0
Visibility: greater than 7 mile(s):0
Temperature: 66 F (19 C)
Dew Point: 48 F (9 C)
Relative Humidity: 52%
Pressure (altimeter): 30.15 in. Hg (1021 hPa)
ob: HESH 051900Z VRB02KT CAVOK 19/09 Q1021 NOSIG
cycle: 19

Station Type Date Time Source
HESH TAF 2021/03/05 18:57 UTC NOAA

TAF HESH 051700Z 0518/0624 35012KT CAVOK

Example: see airport list